Weather reports worldwide

Advertisment
Sutton bonington, United Kingdom (99025): temperature & dewpoint: 18.06.2017 04:00:00 - 24.06.2017 04:00:00 (BST)Sutton bonington, United Kingdom (99025): temperature 5cm: 18.06.2017 04:00:00 - 24.06.2017 04:00:00 (BST)Sutton bonington, United Kingdom (99025): temperature -20cm & temperature -100cm: 18.06.2017 04:00:00 - 24.06.2017 04:00:00 (BST)Sutton bonington, United Kingdom (99025): wind speed: 18.06.2017 04:00:00 - 24.06.2017 04:00:00 (BST)Sutton bonington, United Kingdom (99025): wind direction: 18.06.2017 04:00:00 - 24.06.2017 04:00:00 (BST)Sutton bonington, United Kingdom (99025): visibility: 18.06.2017 04:00:00 - 24.06.2017 04:00:00 (BST)Sutton bonington, United Kingdom (99025): precipitation: 18.06.2017 04:00:00 - 24.06.2017 04:00:00 (BST)
Date & Time tt [°C] td [°C] tt 5cm [°C] tt -20cm [°C] tt -100cm [°C] ff [km/h] ff [kn] dd vv [km] rr [mm]
24.06.2017 04:00:00 16,9 13,9 - - - 13 7 WSW - 0,0
24.06.2017 03:00:00 16,7 14,0 - - - 15 8 SW - 0,0
24.06.2017 02:00:00 16,5 14,1 - - - 13 7 SW - 0,0
24.06.2017 01:00:00 16,8 13,8 - - - 16 9 SW - 0,0
24.06.2017 00:00:00 17,2 13,6 - - - 13 7 SW - 0,0
23.06.2017 23:00:00 17,5 13,5 - - - 16 9 SW - 0,0
23.06.2017 22:00:00 17,7 13,5 - - - 18 10 SW 10 0,0
23.06.2017 21:00:00 17,8 13,5 - - - 15 8 SW - 0,0
23.06.2017 20:00:00 17,8 13,7 - - - 16 9 SW - 0,0
23.06.2017 19:00:00 18,1 13,7 - - - 13 7 SW - 0,0
23.06.2017 18:00:00 18,2 13,8 - - - 13 7 WSW - 0,0
23.06.2017 17:00:00 18,6 14,3 - - - 16 9 SW - 0,0
23.06.2017 16:00:00 18,2 13,6 - - - 18 10 SW - 0,0
23.06.2017 15:00:00 18,5 13,6 - - - 22 12 SW - 0,0
23.06.2017 14:00:00 18,6 13,2 - - - 22 12 SW - 0,0
23.06.2017 13:00:00 18,7 13,9 - - - 21 11 SW - 0,0
23.06.2017 12:00:00 17,8 12,9 - - - 21 11 SW - 0,0
23.06.2017 11:00:00 16,8 12,6 - - - 16 9 WSW - 0,0
23.06.2017 10:00:00 15,4 12,5 - 18,2 17,9 126 68 N 1,5 0,0
23.06.2017 09:00:00 14,6 11,9 - - - 16 9 WSW - 0,2
23.06.2017 08:00:00 14,9 11,2 - - - 15 8 SW - 0,0
23.06.2017 07:00:00 13,7 10,7 - - - 9 5 SSW - 0,0
23.06.2017 06:00:00 13,3 10,4 - - - 11 6 SW - 0,0
23.06.2017 05:00:00 13,3 10,7 - - - 11 6 SW - 0,0
23.06.2017 04:00:00 13,3 10,5 - - - 11 6 SW - 0,0
23.06.2017 03:00:00 13,3 10,7 - - - 8 4 WSW - 0,0
23.06.2017 02:00:00 14,0 10,4 - - - 15 8 W - 0,0
23.06.2017 01:00:00 14,3 10,9 - - - 9 5 WSW - 0,0
23.06.2017 00:00:00 13,9 11,2 - - - 8 4 WSW - 0,0
22.06.2017 23:00:00 14,8 12,7 - - - 8 4 WSW - 0,0
22.06.2017 22:00:00 15,4 12,4 - - - 8 4 W - 0,0
22.06.2017 21:00:00 17,0 12,6 - - - 9 5 W - 0,0
22.06.2017 20:00:00 18,0 13,0 - - - 15 8 W - 0,0
22.06.2017 19:00:00 19,3 13,3 - - - 18 10 W - 0,0
22.06.2017 18:00:00 19,8 13,5 - - - 18 10 W - 0,0
22.06.2017 17:00:00 19,4 13,0 - - - 22 12 W - 0,0
22.06.2017 16:00:00 19,2 13,5 - - - 22 12 W - 0,0
22.06.2017 15:00:00 20,1 14,6 - - - 22 12 W - 0,0
22.06.2017 14:00:00 18,9 14,3 - - - 21 11 W - 0,0
22.06.2017 13:00:00 17,7 14,4 - - - 18 10 W - 0,0
22.06.2017 12:00:00 18,1 13,8 - - - 18 10 W - 0,0
22.06.2017 11:00:00 18,6 13,2 - - - 15 8 W - 0,0
22.06.2017 10:00:00 18,6 14,3 - 19,2 17,7 15 8 SW 16 0,0
22.06.2017 09:00:00 17,7 14,5 - - - 15 8 W - 0,0
22.06.2017 08:00:00 18,1 15,1 - - - 13 7 W - 0,0
22.06.2017 07:00:00 18,0 15,3 - - - 15 8 W - 0,0
22.06.2017 06:00:00 17,7 15,5 - - - 16 9 W - 0,0
22.06.2017 05:00:00 19,2 17,0 - - - 11 6 W - 0,0
22.06.2017 04:00:00 20,0 18,5 - - - 8 4 SW - 0,0
22.06.2017 03:00:00 20,7 19,1 - - - 4 2 S - 0,0
22.06.2017 02:00:00 21,5 19,1 - - - 4 2 SW - 0,0
22.06.2017 01:00:00 22,4 19,4 - - - 8 4 S - 0,0
22.06.2017 00:00:00 23,8 19,7 - - - 9 5 S - 0,0
21.06.2017 23:00:00 23,6 19,6 - - - 13 7 SSE - 0,0
21.06.2017 22:00:00 23,9 19,7 - - - 11 6 SE - 0,0
21.06.2017 21:00:00 24,5 21,1 - - - 5 3 ESE - 0,0
21.06.2017 20:00:00 25,8 21,1 - - - 4 2 ESE - 0,0
21.06.2017 19:00:00 26,3 20,9 - - - 4 2 E - 0,0
21.06.2017 18:00:00 26,2 19,7 - - - 8 4 ESE - 0,0
21.06.2017 17:00:00 26,8 19,4 - - - 5 3 NNW - 0,0
21.06.2017 16:00:00 26,7 19,0 - - - 13 7 SE - 0,0
21.06.2017 15:00:00 27,0 19,3 - - - 11 6 SE - 0,0
21.06.2017 14:00:00 25,9 18,8 - - - 9 5 E - 0,0
21.06.2017 13:00:00 24,5 18,1 - - - 5 3 E - 0,0
21.06.2017 12:00:00 22,9 16,6 - - - 5 3 ESE - 0,0
21.06.2017 11:00:00 20,9 15,9 19,8 - - 4 2 ESE 0,8 0,0
21.06.2017 10:00:00 19,6 15,1 - 18,7 17,7 8 4 SE - 0,0
21.06.2017 09:00:00 17,5 14,2 - - - 11 6 ESE - 0,0
21.06.2017 08:00:00 15,8 13,5 - - - 11 6 ENE - 0,0
21.06.2017 07:00:00 14,1 12,2 - - - 9 5 ENE - 0,0
21.06.2017 06:00:00 12,7 11,7 - - - 9 5 NE - 0,0
21.06.2017 05:00:00 12,1 11,2 - - - 4 2 NE - 0,0
21.06.2017 04:00:00 12,5 11,9 - - - 5 3 E - 0,0
21.06.2017 03:00:00 13,2 12,4 - - - 9 5 ENE - 0,0
21.06.2017 02:00:00 14,2 12,9 - - - 8 4 NE - 0,0
21.06.2017 01:00:00 14,6 13,1 - - - 13 7 NE - 0,0
21.06.2017 00:00:00 15,3 13,8 - - - 15 8 ENE - 0,0
20.06.2017 23:00:00 15,8 14,2 - - - 16 9 ENE - 0,0
20.06.2017 22:00:00 16,6 14,7 - - - 13 7 ENE - 0,0
20.06.2017 21:00:00 17,4 15,1 - - - 15 8 NE - 0,0
20.06.2017 20:00:00 18,3 15,7 - - - 16 9 ENE - 0,0
20.06.2017 19:00:00 18,6 15,9 - - - 15 8 NE - 0,0
20.06.2017 18:00:00 19,0 16,3 - - - 15 8 NE - 0,0
20.06.2017 17:00:00 19,3 15,8 - - - 15 8 NE - 0,0
20.06.2017 16:00:00 19,5 16,2 - - - 15 8 NE - 0,0
20.06.2017 15:00:00 19,3 16,0 - - - 16 9 ENE - 0,0
20.06.2017 14:00:00 19,2 15,9 - - - 16 9 NE - 0,0
20.06.2017 13:00:00 19,2 16,0 - - - 16 9 NE - 0,0
20.06.2017 12:00:00 18,8 15,9 - - - 16 9 NE - 0,0
20.06.2017 11:00:00 18,1 15,5 - - - 16 9 NE - 0,0
20.06.2017 10:00:00 17,6 15,1 24,2 19,2 17,2 15 8 NE 20 0,0
20.06.2017 09:00:00 17,6 15,4 - - - 15 8 NE - 0,0
20.06.2017 08:00:00 17,4 15,1 - - - 16 9 NNE - 0,0
20.06.2017 07:00:00 17,4 14,8 - - - 13 7 NNE - 0,0
20.06.2017 06:00:00 17,5 14,8 - - - 11 6 NNE - 0,0
20.06.2017 05:00:00 18,0 15,1 - - - 13 7 NNE - 0,0
20.06.2017 04:00:00 19,3 15,4 - - - 16 9 N - 0,0
20.06.2017 03:00:00 21,3 16,7 - - - 13 7 N - 0,0
20.06.2017 02:00:00 20,8 18,9 - - - 2 1 WSW - 0,0
20.06.2017 01:00:00 21,2 18,1 - - - 4 2 NE - 0,0
20.06.2017 00:00:00 21,9 17,9 - - - 5 3 N - 0,0
19.06.2017 23:00:00 23,3 16,2 - - - 5 3 N - 0,0
19.06.2017 22:00:00 24,3 17,0 - - - 8 4 NNE - 0,0
19.06.2017 21:00:00 25,4 17,5 - - - 5 3 NNW - 0,0
19.06.2017 20:00:00 27,1 17,4 - - - 4 2 NW - 0,0
19.06.2017 19:00:00 28,3 17,5 - - - 8 4 NW - 0,0
19.06.2017 18:00:00 29,5 15,9 - - - 4 2 NW - 0,0
19.06.2017 17:00:00 29,1 17,4 - - - 4 2 ENE - 0,0
19.06.2017 16:00:00 29,4 16,6 - - - 8 4 NE - 0,0
19.06.2017 15:00:00 29,3 17,7 - - - 8 4 N - 0,0
19.06.2017 14:00:00 28,7 16,3 - - - 8 4 NE - 0,0
19.06.2017 13:00:00 29,1 17,9 - - - 5 3 NE - 0,0
19.06.2017 12:00:00 27,8 17,0 - - - 5 3 ENE - 0,0
19.06.2017 11:00:00 26,6 19,3 - - - 4 2 E - 0,0
19.06.2017 10:00:00 24,6 17,4 24,6 18,5 16,7 2 1 NE 3,0 0,0
19.06.2017 09:00:00 22,7 17,1 - - - 4 2 NE - 0,0
19.06.2017 08:00:00 21,6 16,1 - - - 2 1 ENE - 0,0
19.06.2017 07:00:00 18,6 16,2 - - - 0 0 N - 0,0
19.06.2017 06:00:00 15,6 15,1 - - - 2 1 WNW - 0,0
19.06.2017 05:00:00 15,0 14,1 - - - 2 1 SSE - 0,0
19.06.2017 04:00:00 15,9 15,2 - - - 2 1 ESE - 0,0
19.06.2017 03:00:00 17,1 15,7 - - - 4 2 S - 0,0
19.06.2017 02:00:00 17,8 16,1 - - - 0 0 N - 0,0
19.06.2017 01:00:00 17,5 15,7 - - - 2 1 NW - 0,0
19.06.2017 00:00:00 19,0 16,4 - - - 2 1 S - 0,0
18.06.2017 23:00:00 20,0 16,4 - - - 2 1 SSE - 0,0
18.06.2017 22:00:00 22,7 17,3 - - - 2 1 E - 0,0
18.06.2017 21:00:00 25,5 15,1 - - - 2 1 W - 0,0
18.06.2017 20:00:00 27,7 17,4 - - - 5 3 SW - 0,0
18.06.2017 19:00:00 27,8 15,9 - - - 5 3 SW - 0,0
18.06.2017 18:00:00 29,1 15,9 - - - 5 3 SSW - 0,0
18.06.2017 17:00:00 28,5 14,9 - - - 8 4 SW - 0,0
18.06.2017 16:00:00 29,1 15,2 - - - 5 3 SW - 0,0
18.06.2017 15:00:00 28,0 16,5 - - - 8 4 WSW - 0,0
18.06.2017 14:00:00 27,5 16,4 - - - 11 6 SSW - 0,0
18.06.2017 13:00:00 26,4 15,9 - - - 9 5 WSW - 0,0
18.06.2017 12:00:00 25,8 16,3 - - - 11 6 WSW - 0,0
18.06.2017 11:00:00 24,7 15,9 - - - 11 6 WSW - 0,0
18.06.2017 10:00:00 22,6 14,4 22,7 17,7 16,2 5 3 WSW 1,1 0,0
18.06.2017 09:00:00 20,8 13,4 - - - 9 5 WNW - 0,0
18.06.2017 08:00:00 19,6 13,4 - - - 9 5 WNW - 0,0
18.06.2017 07:00:00 17,6 12,4 - - - 4 2 SW - 0,0
18.06.2017 06:00:00 14,6 12,5 - - - 2 1 S - 0,0
18.06.2017 05:00:00 13,7 11,6 - - - 5 3 SE - 0,0
18.06.2017 04:00:00 14,2 11,2 - - - 0 0 N - 0,0

tt = temperature
td = dewpoint
tt 5cm = temperature 5cm
tt -20cm = temperature -20cm
tt -100cm = temperature -100cm
ff = wind speed
dd = wind direction
vv = visibility
rr = precipitation

Next stations